sensor_id;sensor_type;location;lat;lon;timestamp;temperature;humidity
35246;DHT22;21379;50.962;6.960;2022-12-29T00:01:57;11.00;99.90
35246;DHT22;21379;50.962;6.960;2022-12-29T00:04:24;11.00;99.90
35246;DHT22;21379;50.962;6.960;2022-12-29T00:06:52;10.90;99.90
35246;DHT22;21379;50.962;6.960;2022-12-29T00:09:19;10.90;99.90
35246;DHT22;21379;50.962;6.960;2022-12-29T00:11:46;10.90;99.90
35246;DHT22;21379;50.962;6.960;2022-12-29T00:14:13;11.00;99.90
35246;DHT22;21379;50.962;6.960;2022-12-29T00:16:59;10.90;99.90
35246;DHT22;21379;50.962;6.960;2022-12-29T00:19:26;11.00;99.90
35246;DHT22;21379;50.962;6.960;2022-12-29T00:22:12;11.00;99.90
35246;DHT22;21379;50.962;6.960;2022-12-29T00:24:57;11.00;99.90
35246;DHT22;21379;50.962;6.960;2022-12-29T00:27:42;11.00;99.90
35246;DHT22;21379;50.962;6.960;2022-12-29T00:30:26;11.10;99.90
35246;DHT22;21379;50.962;6.960;2022-12-29T00:33:12;11.00;99.90
35246;DHT22;21379;50.962;6.960;2022-12-29T00:35:58;11.10;99.90
35246;DHT22;21379;50.962;6.960;2022-12-29T00:38:26;11.10;99.90
35246;DHT22;21379;50.962;6.960;2022-12-29T00:41:10;11.20;99.90
35246;DHT22;21379;50.962;6.960;2022-12-29T00:43:55;11.20;99.90
35246;DHT22;21379;50.962;6.960;2022-12-29T00:46:36;11.30;99.90
35246;DHT22;21379;50.962;6.960;2022-12-29T00:49:05;11.30;99.90
35246;DHT22;21379;50.962;6.960;2022-12-29T00:51:54;11.40;99.90
35246;DHT22;21379;50.962;6.960;2022-12-29T00:54:20;11.40;99.90
35246;DHT22;21379;50.962;6.960;2022-12-29T00:56:48;11.50;99.90
35246;DHT22;21379;50.962;6.960;2022-12-29T00:59:15;11.60;99.90
35246;DHT22;21379;50.962;6.960;2022-12-29T01:01:42;11.60;99.90
35246;DHT22;21379;50.962;6.960;2022-12-29T01:04:10;11.70;99.90
35246;DHT22;21379;50.962;6.960;2022-12-29T01:06:39;11.70;99.90
35246;DHT22;21379;50.962;6.960;2022-12-29T01:09:07;11.70;99.90
35246;DHT22;21379;50.962;6.960;2022-12-29T01:11:52;11.70;99.90
35246;DHT22;21379;50.962;6.960;2022-12-29T01:14:19;11.70;99.90
35246;DHT22;21379;50.962;6.960;2022-12-29T01:16:46;11.60;99.90
35246;DHT22;21379;50.962;6.960;2022-12-29T01:19:15;11.60;99.90
35246;DHT22;21379;50.962;6.960;2022-12-29T01:21:43;11.70;99.90
35246;DHT22;21379;50.962;6.960;2022-12-29T01:24:10;11.70;99.90
35246;DHT22;21379;50.962;6.960;2022-12-29T01:26:37;11.80;99.90
35246;DHT22;21379;50.962;6.960;2022-12-29T01:29:04;11.80;99.90
35246;DHT22;21379;50.962;6.960;2022-12-29T01:31:30;11.80;99.90
35246;DHT22;21379;50.962;6.960;2022-12-29T01:33:57;11.80;99.90
35246;DHT22;21379;50.962;6.960;2022-12-29T01:36:25;11.80;99.90
35246;DHT22;21379;50.962;6.960;2022-12-29T01:38:52;11.80;99.90
35246;DHT22;21379;50.962;6.960;2022-12-29T01:41:19;11.90;99.90
35246;DHT22;21379;50.962;6.960;2022-12-29T01:43:48;11.80;99.90
35246;DHT22;21379;50.962;6.960;2022-12-29T01:46:20;11.90;99.90
35246;DHT22;21379;50.962;6.960;2022-12-29T01:48:52;12.10;99.90
35246;DHT22;21379;50.962;6.960;2022-12-29T01:51:22;12.20;99.90
35246;DHT22;21379;50.962;6.960;2022-12-29T01:53:52;12.20;99.90
35246;DHT22;21379;50.962;6.960;2022-12-29T01:56:20;12.20;99.90
35246;DHT22;21379;50.962;6.960;2022-12-29T01:58:50;12.30;99.90
35246;DHT22;21379;50.962;6.960;2022-12-29T02:01:19;12.40;99.90
35246;DHT22;21379;50.962;6.960;2022-12-29T02:03:47;12.40;99.90
35246;DHT22;21379;50.962;6.960;2022-12-29T02:06:18;12.50;99.90
35246;DHT22;21379;50.962;6.960;2022-12-29T02:08:47;12.40;99.90
35246;DHT22;21379;50.962;6.960;2022-12-29T02:11:17;12.30;99.90
35246;DHT22;21379;50.962;6.960;2022-12-29T02:13:44;12.30;99.90
35246;DHT22;21379;50.962;6.960;2022-12-29T02:16:28;12.30;99.90
35246;DHT22;21379;50.962;6.960;2022-12-29T02:19:10;12.50;99.90
35246;DHT22;21379;50.962;6.960;2022-12-29T02:21:59;12.50;99.90
35246;DHT22;21379;50.962;6.960;2022-12-29T02:24:45;12.60;99.90
35246;DHT22;21379;50.962;6.960;2022-12-29T02:27:37;12.50;99.90
35246;DHT22;21379;50.962;6.960;2022-12-29T02:30:16;12.50;99.90
35246;DHT22;21379;50.962;6.960;2022-12-29T02:32:52;12.50;99.90
35246;DHT22;21379;50.962;6.960;2022-12-29T02:35:28;12.50;99.90
35246;DHT22;21379;50.962;6.960;2022-12-29T02:38:03;12.50;99.90
35246;DHT22;21379;50.962;6.960;2022-12-29T02:40:39;12.50;99.90
35246;DHT22;21379;50.962;6.960;2022-12-29T02:43:14;12.50;99.90
35246;DHT22;21379;50.962;6.960;2022-12-29T02:45:48;12.50;99.90
35246;DHT22;21379;50.962;6.960;2022-12-29T02:48:24;12.40;99.90
35246;DHT22;21379;50.962;6.960;2022-12-29T02:50:56;12.40;99.90
35246;DHT22;21379;50.962;6.960;2022-12-29T02:53:25;12.40;99.90
35246;DHT22;21379;50.962;6.960;2022-12-29T02:56:07;12.40;99.90
35246;DHT22;21379;50.962;6.960;2022-12-29T02:58:33;12.40;99.90
35246;DHT22;21379;50.962;6.960;2022-12-29T03:01:12;12.40;99.90
35246;DHT22;21379;50.962;6.960;2022-12-29T03:03:49;12.30;99.90
35246;DHT22;21379;50.962;6.960;2022-12-29T03:06:30;12.30;99.90
35246;DHT22;21379;50.962;6.960;2022-12-29T03:09:06;12.30;99.90
35246;DHT22;21379;50.962;6.960;2022-12-29T03:11:41;12.30;99.90
35246;DHT22;21379;50.962;6.960;2022-12-29T03:14:32;12.30;99.90
35246;DHT22;21379;50.962;6.960;2022-12-29T03:17:22;12.30;99.90
35246;DHT22;21379;50.962;6.960;2022-12-29T03:19:56;12.30;99.90
35246;DHT22;21379;50.962;6.960;2022-12-29T03:22:29;12.30;99.90
35246;DHT22;21379;50.962;6.960;2022-12-29T03:24:59;12.20;99.90
35246;DHT22;21379;50.962;6.960;2022-12-29T03:27:30;12.20;99.90
35246;DHT22;21379;50.962;6.960;2022-12-29T03:30:01;12.20;99.90
35246;DHT22;21379;50.962;6.960;2022-12-29T03:32:33;12.20;99.90
35246;DHT22;21379;50.962;6.960;2022-12-29T03:35:04;12.10;99.90
35246;DHT22;21379;50.962;6.960;2022-12-29T03:37:36;12.10;99.90
35246;DHT22;21379;50.962;6.960;2022-12-29T03:40:06;12.10;99.90
35246;DHT22;21379;50.962;6.960;2022-12-29T03:42:35;12.20;99.90
35246;DHT22;21379;50.962;6.960;2022-12-29T03:45:04;12.20;99.90
35246;DHT22;21379;50.962;6.960;2022-12-29T03:47:32;12.10;99.90
35246;DHT22;21379;50.962;6.960;2022-12-29T03:49:59;12.20;99.90
35246;DHT22;21379;50.962;6.960;2022-12-29T03:52:27;12.20;99.90
35246;DHT22;21379;50.962;6.960;2022-12-29T03:54:54;12.20;99.90
35246;DHT22;21379;50.962;6.960;2022-12-29T03:57:21;12.20;99.90
35246;DHT22;21379;50.962;6.960;2022-12-29T03:59:48;12.20;99.90
35246;DHT22;21379;50.962;6.960;2022-12-29T04:02:14;12.20;99.90
35246;DHT22;21379;50.962;6.960;2022-12-29T04:04:41;12.10;99.90
35246;DHT22;21379;50.962;6.960;2022-12-29T04:07:08;12.10;99.90
35246;DHT22;21379;50.962;6.960;2022-12-29T04:09:36;12.00;99.90
35246;DHT22;21379;50.962;6.960;2022-12-29T04:12:03;12.00;99.90
35246;DHT22;21379;50.962;6.960;2022-12-29T04:14:30;12.00;99.90
35246;DHT22;21379;50.962;6.960;2022-12-29T04:16:57;12.10;99.90
35246;DHT22;21379;50.962;6.960;2022-12-29T04:19:24;12.10;99.90
35246;DHT22;21379;50.962;6.960;2022-12-29T04:21:50;12.10;99.90
35246;DHT22;21379;50.962;6.960;2022-12-29T04:24:17;12.00;99.90
35246;DHT22;21379;50.962;6.960;2022-12-29T04:26:45;12.00;99.90
35246;DHT22;21379;50.962;6.960;2022-12-29T04:29:12;11.90;99.90
35246;DHT22;21379;50.962;6.960;2022-12-29T04:31:39;12.00;99.90
35246;DHT22;21379;50.962;6.960;2022-12-29T04:34:06;12.00;99.90
35246;DHT22;21379;50.962;6.960;2022-12-29T04:36:33;12.10;99.90
35246;DHT22;21379;50.962;6.960;2022-12-29T04:39:00;12.10;99.90
35246;DHT22;21379;50.962;6.960;2022-12-29T04:41:27;12.10;99.90
35246;DHT22;21379;50.962;6.960;2022-12-29T04:43:55;12.10;99.90
35246;DHT22;21379;50.962;6.960;2022-12-29T04:46:22;12.20;99.90
35246;DHT22;21379;50.962;6.960;2022-12-29T04:48:48;12.20;99.90
35246;DHT22;21379;50.962;6.960;2022-12-29T04:51:15;12.20;99.90
35246;DHT22;21379;50.962;6.960;2022-12-29T04:53:42;12.30;99.90
35246;DHT22;21379;50.962;6.960;2022-12-29T04:56:09;12.30;99.90
35246;DHT22;21379;50.962;6.960;2022-12-29T04:58:36;12.40;99.90
35246;DHT22;21379;50.962;6.960;2022-12-29T05:01:04;12.40;99.90
35246;DHT22;21379;50.962;6.960;2022-12-29T05:03:31;12.40;99.90
35246;DHT22;21379;50.962;6.960;2022-12-29T05:05:58;12.40;99.90
35246;DHT22;21379;50.962;6.960;2022-12-29T05:08:25;12.40;99.90
35246;DHT22;21379;50.962;6.960;2022-12-29T05:10:52;12.30;99.90
35246;DHT22;21379;50.962;6.960;2022-12-29T05:13:18;12.40;99.90
35246;DHT22;21379;50.962;6.960;2022-12-29T05:15:50;12.30;99.90
35246;DHT22;21379;50.962;6.960;2022-12-29T05:18:18;12.30;99.90
35246;DHT22;21379;50.962;6.960;2022-12-29T05:20:46;12.20;99.90
35246;DHT22;21379;50.962;6.960;2022-12-29T05:23:13;12.20;99.90
35246;DHT22;21379;50.962;6.960;2022-12-29T05:25:40;12.30;99.90
35246;DHT22;21379;50.962;6.960;2022-12-29T05:28:06;12.40;99.90
35246;DHT22;21379;50.962;6.960;2022-12-29T05:30:33;12.40;99.90
35246;DHT22;21379;50.962;6.960;2022-12-29T05:33:00;12.40;99.90
35246;DHT22;21379;50.962;6.960;2022-12-29T05:35:28;12.40;99.90
35246;DHT22;21379;50.962;6.960;2022-12-29T05:37:55;12.30;99.90
35246;DHT22;21379;50.962;6.960;2022-12-29T05:40:22;12.30;99.90
35246;DHT22;21379;50.962;6.960;2022-12-29T05:42:48;12.30;99.90
35246;DHT22;21379;50.962;6.960;2022-12-29T05:45:15;12.30;99.90
35246;DHT22;21379;50.962;6.960;2022-12-29T05:47:42;12.20;99.90
35246;DHT22;21379;50.962;6.960;2022-12-29T05:50:09;12.30;99.90
35246;DHT22;21379;50.962;6.960;2022-12-29T05:52:37;12.30;99.90
35246;DHT22;21379;50.962;6.960;2022-12-29T05:55:05;12.30;99.90
35246;DHT22;21379;50.962;6.960;2022-12-29T05:57:32;12.30;99.90
35246;DHT22;21379;50.962;6.960;2022-12-29T05:59:58;12.40;99.90
35246;DHT22;21379;50.962;6.960;2022-12-29T06:02:25;12.50;99.90
35246;DHT22;21379;50.962;6.960;2022-12-29T06:04:52;12.40;99.90
35246;DHT22;21379;50.962;6.960;2022-12-29T06:07:19;12.50;99.90
35246;DHT22;21379;50.962;6.960;2022-12-29T06:09:47;12.50;99.90
35246;DHT22;21379;50.962;6.960;2022-12-29T06:12:14;12.40;99.90
35246;DHT22;21379;50.962;6.960;2022-12-29T06:14:40;12.30;99.90
35246;DHT22;21379;50.962;6.960;2022-12-29T06:17:07;12.40;99.90
35246;DHT22;21379;50.962;6.960;2022-12-29T06:19:35;12.40;99.90
35246;DHT22;21379;50.962;6.960;2022-12-29T06:22:02;12.30;99.90
35246;DHT22;21379;50.962;6.960;2022-12-29T06:24:28;12.50;99.90
35246;DHT22;21379;50.962;6.960;2022-12-29T06:26:56;12.50;99.90
35246;DHT22;21379;50.962;6.960;2022-12-29T06:29:23;12.40;99.90
35246;DHT22;21379;50.962;6.960;2022-12-29T06:31:50;12.40;99.90
35246;DHT22;21379;50.962;6.960;2022-12-29T06:34:21;12.30;99.90
35246;DHT22;21379;50.962;6.960;2022-12-29T06:36:48;12.30;99.90
35246;DHT22;21379;50.962;6.960;2022-12-29T06:39:15;12.30;99.90
35246;DHT22;21379;50.962;6.960;2022-12-29T06:41:41;12.30;99.90
35246;DHT22;21379;50.962;6.960;2022-12-29T06:44:10;12.30;99.90
35246;DHT22;21379;50.962;6.960;2022-12-29T06:46:36;12.30;99.90
35246;DHT22;21379;50.962;6.960;2022-12-29T06:49:03;12.30;99.90
35246;DHT22;21379;50.962;6.960;2022-12-29T06:51:30;12.40;99.90
35246;DHT22;21379;50.962;6.960;2022-12-29T06:53:57;12.40;99.90
35246;DHT22;21379;50.962;6.960;2022-12-29T06:56:24;12.50;99.90
35246;DHT22;21379;50.962;6.960;2022-12-29T06:58:50;12.50;99.90
35246;DHT22;21379;50.962;6.960;2022-12-29T07:01:19;12.40;99.90
35246;DHT22;21379;50.962;6.960;2022-12-29T07:03:47;12.50;99.90
35246;DHT22;21379;50.962;6.960;2022-12-29T07:06:15;12.40;99.90
35246;DHT22;21379;50.962;6.960;2022-12-29T07:08:41;12.40;99.90
35246;DHT22;21379;50.962;6.960;2022-12-29T07:11:08;12.40;99.90
35246;DHT22;21379;50.962;6.960;2022-12-29T07:13:35;12.40;99.90
35246;DHT22;21379;50.962;6.960;2022-12-29T07:16:05;12.30;99.90
35246;DHT22;21379;50.962;6.960;2022-12-29T07:18:34;12.40;99.90
35246;DHT22;21379;50.962;6.960;2022-12-29T07:21:02;12.40;99.90
35246;DHT22;21379;50.962;6.960;2022-12-29T07:23:29;12.30;99.90
35246;DHT22;21379;50.962;6.960;2022-12-29T07:26:00;12.30;99.90
35246;DHT22;21379;50.962;6.960;2022-12-29T07:28:27;12.40;99.90
35246;DHT22;21379;50.962;6.960;2022-12-29T07:30:54;12.20;99.90
35246;DHT22;21379;50.962;6.960;2022-12-29T07:33:21;12.30;99.90
35246;DHT22;21379;50.962;6.960;2022-12-29T07:35:49;12.30;99.90
35246;DHT22;21379;50.962;6.960;2022-12-29T07:38:16;12.20;99.90
35246;DHT22;21379;50.962;6.960;2022-12-29T07:40:43;12.30;99.90
35246;DHT22;21379;50.962;6.960;2022-12-29T07:43:10;12.30;99.90
35246;DHT22;21379;50.962;6.960;2022-12-29T07:45:36;12.20;99.90
35246;DHT22;21379;50.962;6.960;2022-12-29T07:48:04;12.20;99.90
35246;DHT22;21379;50.962;6.960;2022-12-29T07:50:33;12.10;99.90
35246;DHT22;21379;50.962;6.960;2022-12-29T07:53:01;12.10;99.90
35246;DHT22;21379;50.962;6.960;2022-12-29T07:55:28;12.10;99.90
35246;DHT22;21379;50.962;6.960;2022-12-29T07:57:55;12.10;99.90
35246;DHT22;21379;50.962;6.960;2022-12-29T08:00:23;12.10;99.90
35246;DHT22;21379;50.962;6.960;2022-12-29T08:02:49;12.10;99.90
35246;DHT22;21379;50.962;6.960;2022-12-29T08:05:16;12.10;99.90
35246;DHT22;21379;50.962;6.960;2022-12-29T08:07:44;12.10;99.90
35246;DHT22;21379;50.962;6.960;2022-12-29T08:10:13;12.10;99.90
35246;DHT22;21379;50.962;6.960;2022-12-29T08:12:41;12.10;99.90
35246;DHT22;21379;50.962;6.960;2022-12-29T08:15:10;12.10;99.90
35246;DHT22;21379;50.962;6.960;2022-12-29T08:17:37;12.10;99.90
35246;DHT22;21379;50.962;6.960;2022-12-29T08:20:05;12.20;99.90
35246;DHT22;21379;50.962;6.960;2022-12-29T08:22:32;12.10;99.90
35246;DHT22;21379;50.962;6.960;2022-12-29T08:24:59;12.10;99.90
35246;DHT22;21379;50.962;6.960;2022-12-29T08:27:27;12.20;99.90
35246;DHT22;21379;50.962;6.960;2022-12-29T08:29:54;12.20;99.90
35246;DHT22;21379;50.962;6.960;2022-12-29T08:32:20;12.20;99.90
35246;DHT22;21379;50.962;6.960;2022-12-29T08:34:47;12.00;99.90
35246;DHT22;21379;50.962;6.960;2022-12-29T08:37:14;12.10;99.90
35246;DHT22;21379;50.962;6.960;2022-12-29T08:39:41;12.10;99.90
35246;DHT22;21379;50.962;6.960;2022-12-29T08:42:07;12.10;99.90
35246;DHT22;21379;50.962;6.960;2022-12-29T08:44:36;12.20;99.90
35246;DHT22;21379;50.962;6.960;2022-12-29T08:47:02;12.20;99.90
35246;DHT22;21379;50.962;6.960;2022-12-29T08:49:29;12.10;99.90
35246;DHT22;21379;50.962;6.960;2022-12-29T08:51:56;12.10;99.90
35246;DHT22;21379;50.962;6.960;2022-12-29T08:54:23;12.10;99.90
35246;DHT22;21379;50.962;6.960;2022-12-29T08:56:50;12.10;99.90
35246;DHT22;21379;50.962;6.960;2022-12-29T08:59:17;12.10;99.90
35246;DHT22;21379;50.962;6.960;2022-12-29T09:01:45;12.00;99.90
35246;DHT22;21379;50.962;6.960;2022-12-29T09:04:12;12.00;99.90
35246;DHT22;21379;50.962;6.960;2022-12-29T09:06:39;12.10;99.90
35246;DHT22;21379;50.962;6.960;2022-12-29T09:09:06;12.00;99.90
35246;DHT22;21379;50.962;6.960;2022-12-29T09:11:32;12.10;99.90
35246;DHT22;21379;50.962;6.960;2022-12-29T09:13:59;12.10;99.90
35246;DHT22;21379;50.962;6.960;2022-12-29T09:16:26;12.10;99.90
35246;DHT22;21379;50.962;6.960;2022-12-29T09:18:54;12.10;99.90
35246;DHT22;21379;50.962;6.960;2022-12-29T09:21:21;12.10;99.90
35246;DHT22;21379;50.962;6.960;2022-12-29T09:23:48;12.10;99.90
35246;DHT22;21379;50.962;6.960;2022-12-29T09:26:15;12.20;99.90
35246;DHT22;21379;50.962;6.960;2022-12-29T09:28:42;12.20;99.90
35246;DHT22;21379;50.962;6.960;2022-12-29T09:31:10;12.20;99.90
35246;DHT22;21379;50.962;6.960;2022-12-29T09:33:36;12.20;99.90
35246;DHT22;21379;50.962;6.960;2022-12-29T09:36:05;12.40;99.90
35246;DHT22;21379;50.962;6.960;2022-12-29T09:38:32;12.40;99.90
35246;DHT22;21379;50.962;6.960;2022-12-29T09:41:02;12.40;99.90
35246;DHT22;21379;50.962;6.960;2022-12-29T09:43:50;12.50;99.90
35246;DHT22;21379;50.962;6.960;2022-12-29T09:46:24;12.40;99.90
35246;DHT22;21379;50.962;6.960;2022-12-29T09:48:57;12.40;99.90
35246;DHT22;21379;50.962;6.960;2022-12-29T09:51:28;12.50;99.90
35246;DHT22;21379;50.962;6.960;2022-12-29T09:53:58;12.50;99.90
35246;DHT22;21379;50.962;6.960;2022-12-29T09:56:26;12.60;99.90
35246;DHT22;21379;50.962;6.960;2022-12-29T09:58:58;12.50;99.90
35246;DHT22;21379;50.962;6.960;2022-12-29T10:01:30;12.60;99.90
35246;DHT22;21379;50.962;6.960;2022-12-29T10:03:59;12.60;99.90
35246;DHT22;21379;50.962;6.960;2022-12-29T10:06:33;12.60;99.90
35246;DHT22;21379;50.962;6.960;2022-12-29T10:09:09;12.60;99.90
35246;DHT22;21379;50.962;6.960;2022-12-29T10:11:52;12.60;99.90
35246;DHT22;21379;50.962;6.960;2022-12-29T10:14:33;12.60;99.90
35246;DHT22;21379;50.962;6.960;2022-12-29T10:17:11;12.70;99.90
35246;DHT22;21379;50.962;6.960;2022-12-29T10:19:52;12.70;99.90
35246;DHT22;21379;50.962;6.960;2022-12-29T10:22:34;12.70;99.90
35246;DHT22;21379;50.962;6.960;2022-12-29T10:25:12;12.80;99.90
35246;DHT22;21379;50.962;6.960;2022-12-29T10:27:42;12.80;99.90
35246;DHT22;21379;50.962;6.960;2022-12-29T10:30:12;12.80;99.90
35246;DHT22;21379;50.962;6.960;2022-12-29T10:32:43;12.80;99.90
35246;DHT22;21379;50.962;6.960;2022-12-29T10:35:15;12.80;99.90
35246;DHT22;21379;50.962;6.960;2022-12-29T10:37:49;12.80;99.90
35246;DHT22;21379;50.962;6.960;2022-12-29T10:40:24;12.90;99.90
35246;DHT22;21379;50.962;6.960;2022-12-29T10:42:54;12.90;99.90
35246;DHT22;21379;50.962;6.960;2022-12-29T10:45:28;13.00;99.90
35246;DHT22;21379;50.962;6.960;2022-12-29T10:48:01;12.90;99.90
35246;DHT22;21379;50.962;6.960;2022-12-29T10:50:29;13.00;99.90
35246;DHT22;21379;50.962;6.960;2022-12-29T10:52:59;13.00;99.90
35246;DHT22;21379;50.962;6.960;2022-12-29T10:55:30;13.10;99.90
35246;DHT22;21379;50.962;6.960;2022-12-29T10:58:02;13.10;99.90
35246;DHT22;21379;50.962;6.960;2022-12-29T11:00:31;13.00;99.90
35246;DHT22;21379;50.962;6.960;2022-12-29T11:03:26;13.10;99.90
35246;DHT22;21379;50.962;6.960;2022-12-29T11:06:03;13.10;99.90
35246;DHT22;21379;50.962;6.960;2022-12-29T11:08:36;13.10;99.90
35246;DHT22;21379;50.962;6.960;2022-12-29T11:11:05;13.10;99.90
35246;DHT22;21379;50.962;6.960;2022-12-29T11:13:34;13.20;99.90
35246;DHT22;21379;50.962;6.960;2022-12-29T11:16:01;13.20;99.90
35246;DHT22;21379;50.962;6.960;2022-12-29T11:18:33;13.20;99.90
35246;DHT22;21379;50.962;6.960;2022-12-29T11:21:03;13.20;99.90
35246;DHT22;21379;50.962;6.960;2022-12-29T11:23:33;13.10;99.90
35246;DHT22;21379;50.962;6.960;2022-12-29T11:26:15;13.10;99.90
35246;DHT22;21379;50.962;6.960;2022-12-29T11:28:44;13.00;99.90
35246;DHT22;21379;50.962;6.960;2022-12-29T11:31:16;12.90;99.90
35246;DHT22;21379;50.962;6.960;2022-12-29T11:33:43;12.90;99.90
35246;DHT22;21379;50.962;6.960;2022-12-29T11:36:13;13.00;99.90
35246;DHT22;21379;50.962;6.960;2022-12-29T11:38:46;13.00;99.90
35246;DHT22;21379;50.962;6.960;2022-12-29T11:41:20;13.10;99.90
35246;DHT22;21379;50.962;6.960;2022-12-29T11:43:48;13.00;99.90
35246;DHT22;21379;50.962;6.960;2022-12-29T11:46:18;13.00;99.90
35246;DHT22;21379;50.962;6.960;2022-12-29T11:48:47;13.00;99.90
35246;DHT22;21379;50.962;6.960;2022-12-29T11:51:22;13.00;99.90
35246;DHT22;21379;50.962;6.960;2022-12-29T11:53:54;12.90;99.90
35246;DHT22;21379;50.962;6.960;2022-12-29T11:56:33;12.90;99.90
35246;DHT22;21379;50.962;6.960;2022-12-29T12:02:30;13.00;99.90
35246;DHT22;21379;50.962;6.960;2022-12-29T12:05:03;12.90;99.90
35246;DHT22;21379;50.962;6.960;2022-12-29T12:07:39;12.80;99.90
35246;DHT22;21379;50.962;6.960;2022-12-29T12:10:21;12.90;99.90
35246;DHT22;21379;50.962;6.960;2022-12-29T12:12:53;12.80;99.90
35246;DHT22;21379;50.962;6.960;2022-12-29T12:15:27;12.80;99.90
35246;DHT22;21379;50.962;6.960;2022-12-29T12:17:59;12.80;99.90
35246;DHT22;21379;50.962;6.960;2022-12-29T12:20:36;12.80;99.90
35246;DHT22;21379;50.962;6.960;2022-12-29T12:23:14;12.80;99.90
35246;DHT22;21379;50.962;6.960;2022-12-29T12:25:53;12.70;99.90
35246;DHT22;21379;50.962;6.960;2022-12-29T12:28:28;12.70;99.90
35246;DHT22;21379;50.962;6.960;2022-12-29T12:31:00;12.80;99.90
35246;DHT22;21379;50.962;6.960;2022-12-29T12:33:29;12.70;99.90
35246;DHT22;21379;50.962;6.960;2022-12-29T12:36:09;12.70;99.90
35246;DHT22;21379;50.962;6.960;2022-12-29T12:38:46;12.70;99.90
35246;DHT22;21379;50.962;6.960;2022-12-29T12:41:25;12.60;99.90
35246;DHT22;21379;50.962;6.960;2022-12-29T12:44:01;12.60;99.90
35246;DHT22;21379;50.962;6.960;2022-12-29T12:46:45;12.60;99.90
35246;DHT22;21379;50.962;6.960;2022-12-29T12:49:35;12.60;99.90
35246;DHT22;21379;50.962;6.960;2022-12-29T12:52:09;12.60;99.90
35246;DHT22;21379;50.962;6.960;2022-12-29T12:54:59;12.70;99.90
35246;DHT22;21379;50.962;6.960;2022-12-29T12:57:44;12.70;99.90
35246;DHT22;21379;50.962;6.960;2022-12-29T13:00:13;12.70;99.90
35246;DHT22;21379;50.962;6.960;2022-12-29T13:02:53;12.60;99.90
35246;DHT22;21379;50.962;6.960;2022-12-29T13:05:41;12.70;99.90
35246;DHT22;21379;50.962;6.960;2022-12-29T13:08:33;12.70;99.90
35246;DHT22;21379;50.962;6.960;2022-12-29T13:11:10;12.70;99.90
35246;DHT22;21379;50.962;6.960;2022-12-29T13:14:04;12.70;99.90
35246;DHT22;21379;50.962;6.960;2022-12-29T13:16:43;12.70;99.90
35246;DHT22;21379;50.962;6.960;2022-12-29T13:19:20;12.60;99.90
35246;DHT22;21379;50.962;6.960;2022-12-29T13:22:02;12.60;99.90
35246;DHT22;21379;50.962;6.960;2022-12-29T13:24:39;12.60;99.90
35246;DHT22;21379;50.962;6.960;2022-12-29T13:27:16;12.50;99.90
35246;DHT22;21379;50.962;6.960;2022-12-29T13:29:50;12.50;99.90
35246;DHT22;21379;50.962;6.960;2022-12-29T13:32:32;12.40;99.90
35246;DHT22;21379;50.962;6.960;2022-12-29T13:35:10;12.40;99.90
35246;DHT22;21379;50.962;6.960;2022-12-29T13:37:47;12.40;99.90
35246;DHT22;21379;50.962;6.960;2022-12-29T13:40:16;12.30;99.90
35246;DHT22;21379;50.962;6.960;2022-12-29T13:42:45;12.30;99.90
35246;DHT22;21379;50.962;6.960;2022-12-29T13:45:17;12.20;99.90
35246;DHT22;21379;50.962;6.960;2022-12-29T13:47:48;12.20;99.90
35246;DHT22;21379;50.962;6.960;2022-12-29T13:50:19;12.20;99.90
35246;DHT22;21379;50.962;6.960;2022-12-29T13:52:50;12.10;99.90
35246;DHT22;21379;50.962;6.960;2022-12-29T13:55:24;12.10;99.90
35246;DHT22;21379;50.962;6.960;2022-12-29T13:57:58;12.10;99.90
35246;DHT22;21379;50.962;6.960;2022-12-29T14:00:33;12.10;99.90
35246;DHT22;21379;50.962;6.960;2022-12-29T14:03:17;12.10;99.90
35246;DHT22;21379;50.962;6.960;2022-12-29T14:06:04;12.00;99.90
35246;DHT22;21379;50.962;6.960;2022-12-29T14:08:33;12.00;99.90
35246;DHT22;21379;50.962;6.960;2022-12-29T14:11:08;12.00;99.90
35246;DHT22;21379;50.962;6.960;2022-12-29T14:13:38;12.00;99.90
35246;DHT22;21379;50.962;6.960;2022-12-29T14:16:09;11.90;99.90
35246;DHT22;21379;50.962;6.960;2022-12-29T14:18:42;11.90;99.90
35246;DHT22;21379;50.962;6.960;2022-12-29T14:21:18;11.90;99.90
35246;DHT22;21379;50.962;6.960;2022-12-29T14:23:48;11.90;99.90
35246;DHT22;21379;50.962;6.960;2022-12-29T14:26:17;11.90;99.90
35246;DHT22;21379;50.962;6.960;2022-12-29T14:29:16;11.90;99.90
35246;DHT22;21379;50.962;6.960;2022-12-29T14:32:37;11.90;99.90
35246;DHT22;21379;50.962;6.960;2022-12-29T14:35:38;11.90;99.90
35246;DHT22;21379;50.962;6.960;2022-12-29T14:38:07;11.90;99.90
35246;DHT22;21379;50.962;6.960;2022-12-29T14:40:40;11.90;99.90
35246;DHT22;21379;50.962;6.960;2022-12-29T14:43:12;11.90;99.90
35246;DHT22;21379;50.962;6.960;2022-12-29T14:45:41;11.80;99.90
35246;DHT22;21379;50.962;6.960;2022-12-29T14:48:35;11.80;99.90
35246;DHT22;21379;50.962;6.960;2022-12-29T14:51:18;11.80;99.90
35246;DHT22;21379;50.962;6.960;2022-12-29T14:53:48;11.70;99.90
35246;DHT22;21379;50.962;6.960;2022-12-29T14:56:16;11.60;99.90
35246;DHT22;21379;50.962;6.960;2022-12-29T14:58:50;11.60;99.90
35246;DHT22;21379;50.962;6.960;2022-12-29T15:01:22;11.50;99.90
35246;DHT22;21379;50.962;6.960;2022-12-29T15:03:54;11.40;99.90
35246;DHT22;21379;50.962;6.960;2022-12-29T15:06:24;11.40;99.90
35246;DHT22;21379;50.962;6.960;2022-12-29T15:08:59;11.40;99.90
35246;DHT22;21379;50.962;6.960;2022-12-29T15:11:41;11.30;99.90
35246;DHT22;21379;50.962;6.960;2022-12-29T15:14:29;11.30;99.90
35246;DHT22;21379;50.962;6.960;2022-12-29T15:16:56;11.30;99.90
35246;DHT22;21379;50.962;6.960;2022-12-29T15:19:26;11.30;99.90
35246;DHT22;21379;50.962;6.960;2022-12-29T15:21:53;11.20;99.90
35246;DHT22;21379;50.962;6.960;2022-12-29T15:24:21;11.20;99.90
35246;DHT22;21379;50.962;6.960;2022-12-29T15:26:50;11.10;99.90
35246;DHT22;21379;50.962;6.960;2022-12-29T15:29:30;11.10;99.90
35246;DHT22;21379;50.962;6.960;2022-12-29T15:31:59;11.00;99.90
35246;DHT22;21379;50.962;6.960;2022-12-29T15:34:31;11.00;99.90
35246;DHT22;21379;50.962;6.960;2022-12-29T15:36:57;10.90;99.90
35246;DHT22;21379;50.962;6.960;2022-12-29T15:39:28;10.90;99.90
35246;DHT22;21379;50.962;6.960;2022-12-29T15:41:56;10.80;99.90
35246;DHT22;21379;50.962;6.960;2022-12-29T15:44:29;10.80;99.90
35246;DHT22;21379;50.962;6.960;2022-12-29T15:46:58;10.80;99.90
35246;DHT22;21379;50.962;6.960;2022-12-29T15:49:28;10.80;99.90
35246;DHT22;21379;50.962;6.960;2022-12-29T15:51:56;10.70;99.90
35246;DHT22;21379;50.962;6.960;2022-12-29T15:54:24;10.70;99.90
35246;DHT22;21379;50.962;6.960;2022-12-29T15:56:53;10.70;99.90
35246;DHT22;21379;50.962;6.960;2022-12-29T15:59:24;10.60;99.90
35246;DHT22;21379;50.962;6.960;2022-12-29T16:01:52;10.60;99.90